Terminal Aerodrome Forecast
Issued by NWS

Home | Current Version | Previous Version | Graphics & Text | Print | Product List | Glossary On
Versions: 1 2 3 4 5 6 7 8 9 10 11 12 13 14
000
FTUS43 KIWX 261100
TAFSBN
TAF
KSBN 261132Z 2612/2712 04008KT 3SM -SN SCT025 OVC040
      TEMPO 2612/2616 2SM -SN OVC025
     FM261700 02009KT P6SM SCT020 BKN050
     FM270000 VRB03KT P6SM BKN040=

USA.gov is the U.S. government's official web portal to all federal, state and local government web resources and services.